Time;durP1;ratioP1;P1;durP2;ratioP2;P2;SDS_P1;SDS_P2;PMS_P1;PMS_P2;Temp;Humidity;BMP_temperature;BMP_pressure;BME280_temperature;BME280_humidity;BME280_pressure;Samples;Min_cycle;Max_cycle;Signal;HPM_P1;HPM_P2
2022/01/26 00:09:50;;;;;;;1.67;1.58;;;;;;;21.07;42.11;97974.25;13068171;22;20016;-54
2022/01/26 00:15:11;;;;;;;2.30;1.58;;;;;;;21.06;42.10;97981.59;13047127;22;20068;-55
2022/01/26 00:20:39;;;;;;;2.35;1.40;;;;;;;21.03;42.04;97981.38;13047378;22;20370;-55
2022/01/26 00:42:40;;;;;;;1.80;1.50;;;;;;;20.96;41.94;97976.41;13046083;22;20486;-55
2022/01/26 00:48:04;;;;;;;1.42;1.33;;;;;;;20.95;42.07;97980.19;13046427;22;20569;-55
2022/01/26 00:53:29;;;;;;;1.92;1.63;;;;;;;20.94;41.96;97981.31;13066765;22;20439;-55
2022/01/26 00:58:48;;;;;;;2.40;1.42;;;;;;;20.92;41.95;97980.81;13045457;22;20082;-54
2022/01/26 01:04:08;;;;;;;1.67;1.55;;;;;;;20.91;41.89;97979.22;13045523;22;20019;-55
2022/01/26 01:09:32;;;;;;;1.50;1.40;;;;;;;20.88;41.90;97988.75;13045138;22;20023;-55
2022/01/26 01:14:55;;;;;;;1.73;1.35;;;;;;;20.88;41.92;97979.84;13045754;22;20516;-55
2022/01/26 01:31:28;;;;;;;2.00;1.63;;;;;;;20.82;41.72;97971.00;13045648;22;20022;-54
2022/01/26 01:36:50;;;;;;;1.42;1.30;;;;;;;20.79;41.88;97965.41;13045131;22;20280;-55
2022/01/26 01:42:10;;;;;;;1.48;1.38;;;;;;;20.77;41.83;97971.13;13066028;22;20015;-54
2022/01/26 01:47:30;;;;;;;1.60;1.42;;;;;;;20.76;41.91;97974.13;13045435;22;20015;-53
2022/01/26 01:52:49;;;;;;;2.55;1.30;;;;;;;20.73;41.74;97968.22;13044775;22;20335;-55
2022/01/26 01:58:10;;;;;;;1.35;1.20;;;;;;;20.72;41.75;97966.63;13044917;22;20015;-55
2022/01/26 02:03:30;;;;;;;1.40;1.30;;;;;;;20.72;41.74;97968.53;13044499;22;20025;-55
2022/01/26 02:08:49;;;;;;;1.40;1.30;;;;;;;20.70;41.76;97959.91;13043995;22;20023;-53
2022/01/26 02:14:15;;;;;;;1.88;1.60;;;;;;;20.68;41.72;97965.63;13045140;22;20021;-54
2022/01/26 03:04:47;;;;;;;1.20;1.10;;;;;;;20.53;41.78;97953.16;13047984;22;20062;-54
2022/01/26 03:10:19;;;;;;;1.65;1.40;;;;;;;20.50;41.63;97940.25;13048010;22;20019;-55
2022/01/26 03:15:44;;;;;;;2.15;1.23;;;;;;;20.49;41.56;97935.13;13047299;22;20019;-53
2022/01/26 03:21:07;;;;;;;1.30;1.20;;;;;;;20.48;41.58;97938.94;13047919;22;20011;-53
2022/01/26 03:37:37;;;;;;;1.55;1.42;;;;;;;20.42;41.75;97943.63;13047215;22;20031;-55
2022/01/26 03:42:58;;;;;;;1.50;1.40;;;;;;;20.41;41.67;97947.47;13068217;22;20015;-54
2022/01/26 03:48:18;;;;;;;2.08;1.20;;;;;;;20.40;41.59;97945.06;13047477;22;20042;-55
2022/01/26 03:53:38;;;;;;;1.30;1.20;;;;;;;20.37;41.53;97946.47;13046883;22;20019;-55
2022/01/26 03:58:57;;;;;;;1.40;1.30;;;;;;;20.36;41.40;97944.84;13046631;22;20025;-54
2022/01/26 04:04:17;;;;;;;1.30;1.20;;;;;;;20.33;41.51;97956.28;13046997;22;20022;-55
2022/01/26 04:09:36;;;;;;;1.33;1.23;;;;;;;20.31;41.35;97950.38;13046872;22;20690;-55
2022/01/26 04:15:02;;;;;;;1.50;1.05;;;;;;;20.31;41.51;97947.69;13046972;22;20021;-55
2022/01/26 04:20:25;;;;;;;1.40;1.30;;;;;;;20.29;41.43;97933.66;13067547;22;20026;-55
2022/01/26 04:25:47;;;;;;;1.20;1.10;;;;;;;20.27;41.31;97939.34;13046635;22;20022;-55
2022/01/26 04:31:08;;;;;;;1.40;1.30;;;;;;;20.26;41.49;97940.44;13046681;22;20381;-55
2022/01/26 04:36:41;;;;;;;1.30;1.20;;;;;;;20.25;41.43;97944.28;13067467;22;20023;-54
2022/01/26 04:42:06;;;;;;;1.27;1.20;;;;;;;20.23;41.37;97937.53;13067522;22;20068;-55
2022/01/26 04:47:26;;;;;;;1.00;1.00;;;;;;;20.21;41.39;97937.03;13045627;22;20018;-54
2022/01/26 04:52:46;;;;;;;1.20;1.05;;;;;;;20.19;41.34;97928.41;13045612;22;20563;-55
2022/01/26 04:58:06;;;;;;;1.20;1.13;;;;;;;20.18;41.34;97927.63;13066497;22;20022;-55
2022/01/26 05:03:25;;;;;;;1.20;1.10;;;;;;;20.15;41.29;97923.63;13045205;22;20145;-55
2022/01/26 05:08:45;;;;;;;1.20;1.13;;;;;;;20.14;41.36;97922.00;13043640;22;20015;-55
2022/01/26 05:14:04;;;;;;;1.30;1.20;;;;;;;20.13;41.78;97919.59;13045733;22;20021;-55
2022/01/26 05:19:24;;;;;;;1.15;1.05;;;;;;;20.11;41.79;97908.28;13045353;22;20015;-55
2022/01/26 05:24:44;;;;;;;1.20;1.10;;;;;;;20.09;41.76;97907.78;13044758;22;20025;-55
2022/01/26 05:30:05;;;;;;;1.20;1.10;;;;;;;20.09;41.81;97911.31;13044834;22;20015;-55
2022/01/26 05:35:24;;;;;;;1.30;1.20;;;;;;;20.07;41.82;97904.56;13065170;22;20023;-53
2022/01/26 05:40:44;;;;;;;1.10;1.00;;;;;;;20.06;41.93;97905.69;13044197;22;20011;-55
2022/01/26 05:46:09;;;;;;;1.40;1.27;;;;;;;20.04;41.87;97910.59;13043895;22;20015;-55
2022/01/26 05:51:31;;;;;;;2.78;1.00;;;;;;;20.02;42.20;97918.22;13065192;22;20470;-53
2022/01/26 05:56:51;;;;;;;1.10;0.98;;;;;;;20.02;42.32;97921.72;13067865;22;20018;-54
2022/01/26 06:02:10;;;;;;;1.45;1.05;;;;;;;20.00;42.45;97909.59;13067846;22;20015;-55
2022/01/26 06:07:29;;;;;;;1.05;1.00;;;;;;;19.99;42.39;97910.69;13067854;22;20012;-53
2022/01/26 06:12:49;;;;;;;2.35;1.00;;;;;;;19.97;42.64;97893.94;13046952;22;20440;-55
2022/01/26 06:18:08;;;;;;;1.35;1.10;;;;;;;19.94;42.73;97890.75;13047213;22;20038;-54
2022/01/26 06:23:28;;;;;;;1.20;1.10;;;;;;;19.93;42.76;97902.69;13067755;22;20441;-54
2022/01/26 06:28:49;;;;;;;5.38;1.88;;;;;;;19.92;42.68;97881.34;13067168;22;20019;-55
2022/01/26 06:34:12;;;;;;;5.75;2.17;;;;;;;19.90;42.46;97888.97;13049775;22;20435;-54
2022/01/26 06:39:32;;;;;;;3.28;1.60;;;;;;;19.89;42.37;97898.94;13051464;22;20073;-54
2022/01/26 06:45:06;;;;;;;3.38;1.80;;;;;;;19.88;42.63;97889.25;13049081;22;20454;-54
2022/01/26 06:50:26;;;;;;;5.28;2.00;;;;;;;19.88;42.50;97893.88;13046862;22;20019;-55
2022/01/26 06:55:46;;;;;;;6.93;2.13;;;;;;;19.86;42.46;97883.34;13066424;22;20434;-55
2022/01/26 07:01:05;;;;;;;6.35;2.40;;;;;;;19.86;42.56;97883.34;13047691;22;20491;-56
2022/01/26 07:06:25;;;;;;;7.50;2.70;;;;;;;19.86;42.64;97891.44;13048911;22;20520;-55
2022/01/26 07:11:47;;;;;;;5.82;2.90;;;;;;;19.84;42.45;97896.34;13049029;22;20064;-55
2022/01/26 07:22:45;;;;;;;8.48;2.72;;;;;;;19.80;42.50;97899.94;13050216;22;20015;-54
2022/01/26 07:28:05;;;;;;;19.27;4.18;;;;;;;19.78;42.43;97897.56;13047982;22;20012;-55
2022/01/26 07:33:25;;;;;;;7.72;2.70;;;;;;;19.75;42.13;97895.44;13071045;22;20466;-55
2022/01/26 07:38:44;;;;;;;5.82;2.60;;;;;;;19.72;41.67;97898.75;13070076;22;20019;-55
2022/01/26 07:44:04;;;;;;;6.05;2.58;;;;;;;19.70;41.26;97898.22;13049166;22;20015;-55
2022/01/26 07:49:23;;;;;;;6.75;2.25;;;;;;;19.69;41.16;97902.00;13070498;22;20038;-55
2022/01/26 07:54:45;;;;;;;6.55;2.17;;;;;;;19.66;41.42;97905.31;13049843;22;20444;-55
2022/01/26 08:00:07;;;;;;;5.45;2.35;;;;;;;19.62;38.84;97912.41;13050267;22;20499;-55
2022/01/26 08:05:33;;;;;;;4.63;1.90;;;;;;;19.56;37.46;97911.69;13049462;22;20019;-55
2022/01/26 08:10:52;;;;;;;4.85;1.88;;;;;;;19.55;39.49;97910.88;13049880;22;20069;-55
2022/01/26 08:16:12;;;;;;;4.32;2.10;;;;;;;19.54;40.00;97905.78;13050002;22;20030;-55
2022/01/26 08:21:31;;;;;;;4.88;2.38;;;;;;;19.52;39.57;97906.09;13049400;22;20015;-55
2022/01/26 08:26:51;;;;;;;3.08;1.90;;;;;;;19.51;39.58;97909.88;13049874;22;20022;-54
2022/01/26 08:32:10;;;;;;;3.58;1.92;;;;;;;19.50;39.61;97902.88;13048539;22;20016;-56
2022/01/26 08:37:30;;;;;;;4.18;1.65;;;;;;;19.48;39.70;97910.50;13047806;22;20015;-55
2022/01/26 08:42:49;;;;;;;3.78;1.83;;;;;;;19.48;39.85;97894.28;13049097;22;20019;-55
2022/01/26 08:48:09;;;;;;;3.42;1.90;;;;;;;19.47;39.97;97914.28;13067493;22;20027;-55
2022/01/26 09:48:02;;;;;;;2.80;1.70;;;;;;;18.67;40.17;97897.09;10484961;27;20389;-50
2022/01/26 09:53:30;;;;;;;3.05;2.33;;;;;;;18.61;37.89;97902.88;10493139;28;20047;-52
2022/01/26 09:58:50;;;;;;;4.55;2.10;;;;;;;18.68;38.22;97898.72;10498241;28;20056;-51
2022/01/26 10:04:37;;;;;;;4.00;1.73;;;;;;;18.81;38.96;97896.41;10479476;28;20399;-50
2022/01/26 10:46:38;;;;;;;2.72;2.00;;;;;;;19.06;39.08;97881.72;10611629;27;20775;-52
2022/01/26 10:52:03;;;;;;;2.10;1.70;;;;;;;19.05;39.39;97880.94;10592803;28;20580;-54
2022/01/26 10:57:24;;;;;;;2.70;1.80;;;;;;;19.05;39.25;97877.41;10586544;28;20065;-53
2022/01/26 11:05:08;;;;;;;4.03;2.10;;;;;;;19.03;38.96;97866.91;10587149;27;20409;-54
2022/01/26 11:10:33;;;;;;;3.95;2.22;;;;;;;19.01;39.15;97852.09;10559257;28;20051;-53
2022/01/26 11:15:52;;;;;;;4.82;1.90;;;;;;;18.99;38.98;97865.09;10566534;28;20051;-53
2022/01/26 11:33:44;;;;;;;3.05;2.28;;;;;;;18.71;39.14;97860.34;10477112;27;20413;-54
2022/01/26 11:42:16;;;;;;;4.00;2.58;;;;;;;18.73;39.34;97844.66;10473682;28;20053;-54
2022/01/26 11:45:24;;;;;;;3.58;2.08;;;;;;;18.75;39.45;97831.66;10455368;28;20061;-52
2022/01/26 11:50:47;;;;;;;4.25;2.40;;;;;;;18.78;39.81;97830.28;10439682;28;20595;-54
2022/01/26 11:56:13;;;;;;;2.97;2.10;;;;;;;18.78;39.97;97841.88;10437606;28;20053;-53
2022/01/26 12:01:40;;;;;;;3.88;2.20;;;;;;;18.80;40.12;97838.09;10454480;28;20425;-54
2022/01/26 12:07:18;;;;;;;3.28;2.25;;;;;;;18.80;39.99;97827.31;10475176;28;20054;-53
2022/01/26 12:12:37;;;;;;;4.10;2.20;;;;;;;18.77;39.63;97810.56;10453346;28;20467;-53
2022/01/26 12:18:21;;;;;;;4.63;2.75;;;;;;;18.76;39.65;97810.88;10463767;28;20057;-54
2022/01/26 12:35:22;;;;;;;4.80;2.42;;;;;;;18.74;39.58;97819.28;10440650;28;20049;-53
2022/01/26 12:46:26;;;;;;;5.28;2.65;;;;;;;18.71;39.22;97811.75;10417677;28;20373;-54
2022/01/26 12:51:51;;;;;;;3.00;2.40;;;;;;;18.69;39.15;97808.53;10419891;28;20057;-53
2022/01/26 12:57:12;;;;;;;3.97;2.35;;;;;;;18.69;39.26;97834.75;10416022;28;20036;-54
2022/01/26 13:02:31;;;;;;;4.47;2.42;;;;;;;18.69;39.34;97842.84;10419399;28;20485;-53
2022/01/26 13:08:04;;;;;;;40.65;11.18;;;;;;;18.67;39.62;97843.13;10425221;28;20061;-53
2022/01/26 13:13:24;;;;;;;37.50;13.57;;;;;;;18.66;40.52;97819.13;10422372;28;20448;-53
2022/01/26 13:24:56;;;;;;;23.42;9.15;;;;;;;18.66;42.24;97800.22;10417446;28;20033;-53
2022/01/26 13:47:29;;;;;;;9.73;5.90;;;;;;;18.65;41.16;97802.13;10402842;28;20649;-53
2022/01/26 14:03:10;;;;;;;9.82;5.28;;;;;;;18.72;41.12;97802.56;10433351;28;20056;-53
2022/01/26 14:08:30;;;;;;;12.27;5.43;;;;;;;18.76;41.50;97798.19;10408740;28;20069;-54
2022/01/26 14:13:53;;;;;;;11.77;5.25;;;;;;;18.80;41.54;97792.22;10397340;28;20057;-53
2022/01/26 14:25:14;;;;;;;9.75;4.40;;;;;;;18.90;41.11;97802.88;10374678;28;20560;-54
2022/01/26 14:37:03;;;;;;;12.07;4.63;;;;;;;18.99;42.23;97811.88;10393054;28;20920;-54
2022/01/26 15:33:50;;;;;;;13.75;4.43;;;;;;;19.50;43.52;97786.69;10392886;28;20041;-53
2022/01/26 16:06:19;;;;;;;10.35;4.47;;;;;;;19.73;43.46;97747.03;10410389;28;20064;-54
2022/01/26 17:24:23;;;;;;;10.20;3.47;;;;;;;20.25;43.17;97748.66;10397568;28;20100;-54
2022/01/26 17:46:42;;;;;;;5.18;2.70;;;;;;;20.27;43.24;97758.06;10399342;28;20046;-57
2022/01/26 18:26:05;;;;;;;5.78;2.97;;;;;;;20.30;41.70;97757.44;10397549;28;20058;-53
2022/01/26 18:53:59;;;;;;;6.53;3.63;;;;;;;20.30;42.63;97745.81;10397068;28;20111;-50
2022/01/26 18:59:19;;;;;;;16.98;5.35;;;;;;;20.29;42.98;97742.31;10400093;28;20756;-50
2022/01/26 19:04:47;;;;;;;9.20;4.10;;;;;;;20.30;43.43;97730.38;10398922;28;20041;-52
2022/01/26 19:10:08;;;;;;;12.07;4.57;;;;;;;20.29;43.57;97726.09;10397483;28;20099;-53
2022/01/26 19:15:31;;;;;;;9.73;4.10;;;;;;;20.28;43.60;97732.59;10398931;28;20134;-52
2022/01/26 19:21:02;;;;;;;8.40;3.65;;;;;;;20.29;43.69;97728.78;10409373;28;20114;-53
2022/01/26 19:26:27;;;;;;;8.13;3.60;;;;;;;20.29;43.65;97734.19;10394748;28;20054;-53
2022/01/26 19:54:09;;;;;;;4.15;2.80;;;;;;;20.25;44.24;97727.81;10406028;28;20045;-51
2022/01/26 19:59:29;;;;;;;5.20;3.20;;;;;;;20.25;44.30;97738.63;10401417;28;20041;-50
2022/01/26 20:04:49;;;;;;;5.47;2.80;;;;;;;20.24;44.18;97723.47;10400860;28;20057;-52
2022/01/26 20:10:10;;;;;;;5.25;2.67;;;;;;;20.24;44.19;97733.50;10410938;28;20053;-53
2022/01/26 20:15:30;;;;;;;6.32;2.97;;;;;;;-146.19;100.00;65364.44;10406040;28;20056;-52
2022/01/26 20:20:51;;;;;;;9.18;8.23;;;;;;;19.43;35.45;97718.69;10407725;28;20095;-53
2022/01/26 20:26:11;;;;;;;7.45;4.70;;;;;;;19.59;39.43;97742.72;10407167;28;20584;-51
2022/01/26 20:31:30;;;;;;;8.35;3.80;;;;;;;19.75;40.70;97742.13;10404190;28;20049;-49
2022/01/26 20:36:50;;;;;;;5.88;3.92;;;;;;;19.85;40.69;97745.72;10406348;28;20045;-51
2022/01/26 20:42:10;;;;;;;5.78;3.90;;;;;;;19.89;40.38;97744.00;10417590;28;20050;-52
2022/01/26 20:47:30;;;;;;;8.38;3.70;;;;;;;19.92;40.43;97741.50;10399658;28;20053;-52
2022/01/26 20:52:49;;;;;;;4.63;3.60;;;;;;;19.93;40.55;97740.41;10414791;28;20075;-52
2022/01/26 20:58:09;;;;;;;6.63;3.90;;;;;;;19.94;40.99;97727.69;10407391;28;20053;-52
2022/01/26 21:03:29;;;;;;;5.97;3.53;;;;;;;19.94;41.32;97733.09;10405784;28;20056;-51
2022/01/26 21:08:48;;;;;;;8.90;3.60;;;;;;;19.92;41.40;97725.28;10392435;28;20073;-52
2022/01/26 21:14:08;;;;;;;4.57;3.58;;;;;;;19.93;41.63;97726.91;10403501;28;20061;-52
2022/01/26 21:19:31;;;;;;;5.68;3.15;;;;;;;19.92;41.77;97727.97;10388183;28;20068;-52
2022/01/26 21:24:52;;;;;;;6.00;3.67;;;;;;;19.91;41.90;97734.47;10406421;28;20034;-51
2022/01/26 21:30:12;;;;;;;4.70;3.38;;;;;;;19.90;41.90;97738.31;10403300;28;20100;-51
2022/01/26 21:35:31;;;;;;;5.53;3.30;;;;;;;19.90;42.14;97737.50;10404790;28;20045;-51
2022/01/26 21:40:51;;;;;;;5.65;3.30;;;;;;;19.90;42.28;97721.28;10403362;28;20488;-51
2022/01/26 21:46:10;;;;;;;4.57;3.50;;;;;;;19.88;42.20;97718.09;10400394;28;20058;-51
2022/01/26 21:51:29;;;;;;;4.97;3.03;;;;;;;19.88;42.45;97728.91;10403967;28;20396;-52
2022/01/26 21:56:49;;;;;;;4.47;3.10;;;;;;;19.87;42.47;97732.69;10408409;28;20129;-52
2022/01/26 22:02:10;;;;;;;5.07;3.00;;;;;;;19.85;42.50;97738.41;10395985;28;20053;-48
2022/01/26 22:07:29;;;;;;;4.55;3.15;;;;;;;19.85;42.75;97734.91;10400774;28;20099;-48
2022/01/26 22:12:51;;;;;;;7.40;3.17;;;;;;;19.84;42.76;97719.81;10399937;28;20057;-49
2022/01/26 22:18:10;;;;;;;4.38;3.40;;;;;;;19.82;42.80;97714.69;10401008;28;20496;-52
2022/01/26 22:23:30;;;;;;;4.68;2.83;;;;;;;19.81;42.92;97715.78;10400683;28;20572;-52
2022/01/26 22:28:51;;;;;;;3.83;2.83;;;;;;;19.80;42.80;97716.91;10392855;28;20456;-52
2022/01/26 22:34:10;;;;;;;4.10;2.72;;;;;;;19.81;42.50;97723.09;10396098;28;20042;-53
2022/01/26 22:39:30;;;;;;;2.95;2.53;;;;;;;19.78;42.66;97723.69;10398458;28;20041;-52
2022/01/26 22:44:49;;;;;;;4.97;2.85;;;;;;;19.76;42.82;97732.13;10395251;28;20053;-52
2022/01/26 22:50:09;;;;;;;4.40;2.80;;;;;;;19.76;42.92;97724.03;10402442;28;20072;-52
2022/01/26 22:55:29;;;;;;;4.95;2.83;;;;;;;19.75;42.89;97725.09;10401894;28;20044;-51
2022/01/26 23:06:26;;;;;;;4.85;2.83;;;;;;;19.72;42.94;97706.81;10398472;28;20107;-52
2022/01/26 23:11:45;;;;;;;4.28;3.03;;;;;;;19.71;43.17;97707.88;10399102;28;20045;-49
2022/01/26 23:17:05;;;;;;;3.78;2.92;;;;;;;19.70;43.01;97714.38;10399586;28;20056;-50
2022/01/26 23:22:27;;;;;;;4.32;2.83;;;;;;;19.70;42.82;97708.97;10405147;28;20049;-52
2022/01/26 23:44:22;;;;;;;5.15;3.00;;;;;;;19.66;43.28;97702.56;10394813;28;20052;-50
